Terminal Aerodrome Forecast
Issued by NWS

Home | Current Version | Previous Version | Text Only | Print | Product List | Glossary On
Versions: 1 2 3 4 5 6 7 8 9 10 11 12 13 14 15 16 17
000
FTUS41 KBOX 241723
TAFBAF
TAF
KBAF 241723Z 2418/2518 31013G22KT P6SM FEW040
     FM250000 31004KT P6SM SKC
     FM250800 00000KT P6SM FEW250
     FM251400 25006KT P6SM SCT060=

USA.gov is the U.S. government's official web portal to all federal, state and local government web resources and services.